Friday, February 23, 2018, 3:17 PM EST
Back to Local

KJYO, Leesburg / Godfrey

Location: Leesburg, VA, United States Lat: 39.083
Local Time: 3:17 PM EST (20:17 GMT) Lon: -77.567
Time Zone: US/Eastern Elev: 390 ft

Show me the last for .
Show Coded

Time T Td Feel RH Dir Speed Gust Alt SLP Vis Weather Sky Remarks
2018-02-23 14:35 41 41 35 100 170° 9 - 30.39 - 10 OVC008 None
2018-02-23 14:15 41 41 35 100 160° 9 - 30.40 - 10 OVC008 None
2018-02-23 13:55 41 41 35 100 170° 9 - 30.41 - 10 OVC008 None
2018-02-23 13:30 41 41 37 100 190° 6 - 30.44 - 10 OVC008 None
2018-02-23 13:15 41 41 35 100 180° 10 - 30.43 - 10 OVC006 None
2018-02-23 12:55 39 39 34 100 170° 8 - 30.45 - 4 BR OVC006 None
2018-02-23 12:35 37 37 31 100 160° 8 - 30.48 - 3 BR OVC006 None
2018-02-23 12:15 37 37 32 100 170° 7 - 30.50 - 4 BR OVC006 None
2018-02-23 11:55 37 37 33 100 160° 6 - 30.52 - 7 OVC006 None
2018-02-23 11:35 37 37 34 100 160° 5 - 30.53 - 4 BR OVC006 None
2018-02-23 11:15 37 37 32 100 130° 7 - 30.53 - 1 BR OVC004 None
2018-02-23 10:55 37 37 31 100 130° 8 - 30.54 - 1 BR OVC004 None
2018-02-23 10:35 37 37 32 100 130° 7 - 30.55 - 1 BR OVC004 None
2018-02-23 10:15 36 36 29 100 120° 8 - 30.56 - 1 BR OVC004 None
2018-02-23 09:55 36 36 32 100 100° 5 - 30.57 - 1 BR OVC004 None
2018-02-23 09:35 36 36 31 100 90° 6 - 30.57 - 1 BR OVC006 None
2018-02-23 09:15 36 36 30 100 110° 7 - 30.58 - 2 BR OVC008 None
2018-02-23 08:55 36 36 31 100 120° 6 - 30.58 - 10 BKN008 OVC012 None
2018-02-23 08:35 36 36 30 100 120° 7 - 30.58 - 10 BKN004 OVC014 None
2018-02-23 08:15 36 36 31 100 120° 6 - 30.58 - 10 SCT004 BKN018 OVC023 None
2018-02-23 07:55 36 36 33 100 90° 3 - 30.59 - 7 -RA BKN004 BKN010 OVC021 None
2018-02-23 07:35 36 36 33 100 120° 3 - 30.59 - 2 -RA BKN004 OVC019 None
2018-02-23 07:15 36 36 32 100 110° 5 - 30.58 - 5 RA SCT006 OVC021 None
2018-02-23 06:55 36 36 32 100 110° 5 - 30.58 - 1 -RA OVC006 None
2018-02-23 06:35 36 36 31 100 120° 6 - 30.58 - 7 -RA BKN006 OVC014 None
2018-02-23 06:15 36 36 31 100 130° 6 - 30.58 - 5 BR BKN004 OVC008 None
2018-02-23 05:55 36 36 32 100 130° 5 - 30.58 - 2 -RA OVC004 None
2018-02-23 05:35 36 36 33 100 100° 3 - 30.58 - 3 -RA BKN004 OVC010 None
2018-02-23 05:15 37 37 35 100 100° 3 - 30.59 - 3 BR OVC004 None
2018-02-23 04:55 37 37 35 100 140° 3 - 30.58 - 2 -DZ OVC004 None
2018-02-23 04:35 37 37 35 100 100° 3 - 30.58 - 2 -RA BKN004 OVC008 None
2018-02-23 04:15 37 37 35 100 120° 3 - 30.58 - 3 BR OVC006 None
2018-02-23 03:55 37 37 34 100 110° 5 - 30.59 - 4 BR OVC006 None
2018-02-23 03:35 37 37 35 100 130° 3 - 30.59 - 4 BR OVC008 None
2018-02-23 03:15 37 37 34 100 120° 5 - 30.59 - 5 -RA OVC010 None
2018-02-23 02:55 37 37 34 100 130° 5 - 30.59 - 7 BKN008 OVC012 None
2018-02-23 02:35 37 37 - 100 - Calm - 30.59 - 5 BR OVC006 None
2018-02-23 02:15 37 37 - 100 - Calm - 30.60 - 4 BR OVC006 None
2018-02-23 01:55 37 37 - 100 - Calm - 30.59 - 5 BR OVC008 None
2018-02-23 01:35 39 37 35 93 110° 6 - 30.59 - 7 RA OVC010 None
2018-02-23 01:15 39 37 35 93 80° 6 - 30.59 - 10 OVC012 None
2018-02-23 00:55 39 37 37 93 100° 3 - 30.61 - 10 OVC012 None
2018-02-23 00:35 37 37 35 100 130° 3 - 30.61 - 10 OVC012 None
2018-02-23 00:15 37 37 34 100 100° 5 - 30.61 - 10 OVC010 None
2018-02-22 23:55 37 37 33 100 80° 6 - 30.60 - 10 OVC010 None
2018-02-22 23:35 39 37 35 93 80° 6 - 30.59 - 10 OVC010 None
2018-02-22 23:15 39 39 37 100 70° 3 - 30.60 - 10 OVC010 None
2018-02-22 22:55 39 39 35 100 90° 6 - 30.61 - 10 OVC010 None
2018-02-22 22:35 37 37 - 100 - Calm - 30.60 - 7 OVC008 None
2018-02-22 22:15 37 37 34 100 30° 5 - 30.61 - 10 OVC008 None
2018-02-22 21:55 37 37 33 100 30° 6 - 30.61 - 10 BKN008 OVC012 None
2018-02-22 21:35 37 37 33 100 20° 6 - 30.61 - 10 OVC008 None
2018-02-22 21:15 37 37 33 100 20° 6 - 30.60 - 10 OVC008 None
2018-02-22 20:55 39 39 35 100 30° 6 - 30.58 - 10 OVC008 None
2018-02-22 20:35 39 39 36 100 20° 5 - 30.59 - 10 OVC008 None
2018-02-22 20:15 39 39 36 100 40° 5 - 30.58 - 10 OVC010 None
2018-02-22 19:55 39 39 34 100 30° 7 - 30.58 - 10 OVC012 None
2018-02-22 19:35 41 41 36 100 40° 8 - 30.57 - 10 OVC010 None
2018-02-22 19:15 41 41 36 100 30° 8 - 30.57 - 10 -DZ OVC008 None
2018-02-22 18:55 41 41 36 100 40° 7 - 30.57 - 10 OVC006 None
2018-02-22 18:35 41 41 37 100 30° 6 - 30.56 - 10 OVC006 None
2018-02-22 18:15 41 41 36 100 40° 8 - 30.55 - 7 -RA OVC006 None
2018-02-22 17:55 41 41 33 100 30° 8 16 30.55 - 10 OVC006 None
2018-02-22 17:35 41 41 34 100 40° 12 - 30.55 - 10 OVC006 None
2018-02-22 17:15 41 41 32 100 30° 10 17 30.55 - 10 OVC006 None
2018-02-22 16:55 43 43 35 100 30° 9 16 30.55 - 5 -RA BKN004 BKN018 OVC032 None
2018-02-22 16:35 43 43 35 100 30° 13 17 30.53 - 2 +RA BKN004 OVC033 None
2018-02-22 16:15 43 43 34 100 20° 15 21 30.52 - 2 +RA OVC004 None
2018-02-22 15:55 43 43 35 100 20° 10 17 30.51 - 1 BR OVC006 None
2018-02-22 15:35 45 45 37 100 30° 14 18 30.50 - 1 BR OVC006 None

Support USWX by starting your Amazon purchase here.